Terminal Aerodrome Forecast
Issued by NWS

Home | Current Version | Previous Version | Text Only | Print | Product List | Glossary On
Versions: 1 2 3 4 5 6 7 8 9 10 11 12 13 14 15 16
695
FTUS41 KILN 060524
TAFLUK
TAF
KLUK 060524Z 0606/0706 VRB02KT P6SM SCT250
     FM061500 23007KT P6SM SCT070 SCT250
     FM062300 19003KT P6SM SCT060=

USA.gov is the U.S. government's official web portal to all federal, state and local government web resources and services.